KBIS

Bismark Municipal Airport

Airport
ICAO code
KBIS
IATA Code
BIS
Summary
ICAO Region
NAM
ICAO Territory
Location

Bismark , North Dakota

Serving
Bismark
Elevation
1661 ft
Coordinates
46° 46' 25" N , 100° 45' 21" W
KCC
Airport CFIT
Altimeter Temperature Error Correction
Airport WX
Cumulonimbus
Metar
KBIS 142052Z AUTO 15019G25KT 10SM BKN110 29/09 A2992 RMK AO2 PK WND 15028/2013 SLP125 T02940089 56024

Description

Bismarck Municipal Airport is a public use airport located 3 nm southeast of the central business district of Bismarck, North Dakota, USA.

Airport map

Aerial View

SKYbrary Partners:

Safety knowledge contributed by: